Time;durP1;ratioP1;P1;durP2;ratioP2;P2;SDS_P1;SDS_P2;PMS_P1;PMS_P2;Temp;Humidity;BMP_temperature;BMP_pressure;BME280_temperature;BME280_humidity;BME280_pressure;Samples;Min_cycle;Max_cycle;Signal;HPM_P1;HPM_P2
2023/08/19 00:00:36;;;;;;;1.58;0.95;;;;;;;21.53;91.05;99731.59;5080617;28;20059;-62
2023/08/19 00:03:05;;;;;;;;;;;;;;;21.54;90.92;99738.50;5080636;28;20395;-62
2023/08/19 00:05:34;;;;;;;1.55;1.23;;;;;;;21.51;90.77;99730.81;5080535;28;20010;-62
2023/08/19 00:08:03;;;;;;;;;;;;;;;21.41;90.67;99732.13;5080697;28;20487;-62
2023/08/19 00:10:32;;;;;;;3.45;1.45;;;;;;;21.30;90.63;99730.03;5080265;28;19928;-62
2023/08/19 00:13:02;;;;;;;;;;;;;;;21.28;90.54;99743.06;5080701;28;20036;-62
2023/08/19 00:15:31;;;;;;;1.92;1.05;;;;;;;21.27;90.33;99731.00;5080474;28;20381;-62
2023/08/19 00:18:01;;;;;;;1.35;1.10;;;;;;;21.20;90.26;99726.97;5080186;28;20051;-62
2023/08/19 00:20:32;;;;;;;1.75;1.08;;;;;;;21.21;90.33;99728.66;5079887;28;20494;-62
2023/08/19 00:23:02;;;;;;;1.05;1.00;;;;;;;21.20;90.18;99724.38;5080095;28;20044;-62
2023/08/19 00:25:33;;;;;;;1.33;0.90;;;;;;;21.18;90.25;99731.41;5079810;28;20043;-61
2023/08/19 00:28:04;;;;;;;1.73;1.52;;;;;;;21.18;90.17;99725.38;5080047;28;20048;-62
2023/08/19 00:30:33;;;;;;;2.70;1.80;;;;;;;21.14;90.37;99727.22;5095852;28;20113;-62
2023/08/19 00:33:03;;;;;;;1.88;1.40;;;;;;;21.12;90.28;99739.44;5079757;28;20120;-62
2023/08/19 00:35:33;;;;;;;0.98;0.93;;;;;;;21.13;90.24;99743.72;5078475;28;20040;-62
2023/08/19 00:38:02;;;;;;;1.40;1.05;;;;;;;21.14;90.44;99755.78;5079737;28;20044;-63
2023/08/19 00:40:31;;;;;;;1.15;1.05;;;;;;;21.15;90.65;99749.69;5080260;28;20082;-63
2023/08/19 00:43:00;;;;;;;1.45;1.35;;;;;;;21.15;90.68;99746.25;5079679;28;20048;-62
2023/08/19 00:45:30;;;;;;;1.95;1.67;;;;;;;21.14;90.56;99742.00;5079691;28;20395;-62
2023/08/19 00:48:00;;;;;;;0.88;0.85;;;;;;;21.12;90.85;99746.38;5095383;28;20052;-63
2023/08/19 00:50:31;;;;;;;0.70;0.70;;;;;;;21.10;90.73;99749.03;5079985;28;20470;-63
2023/08/19 00:52:59;;;;;;;;;;;;;;;21.09;90.82;99736.97;5080241;28;20613;-63
2023/08/19 00:55:30;;;;;;;1.77;1.52;;;;;;;21.13;91.01;99733.34;5078274;28;20436;-62
2023/08/19 00:58:01;;;;;;;1.95;1.48;;;;;;;21.17;90.95;99740.09;5095529;28;20032;-62
2023/08/19 01:00:32;;;;;;;1.70;1.58;;;;;;;21.17;90.77;99739.25;5079879;28;20142;-62
2023/08/19 01:03:04;;;;;;;0.50;0.50;;;;;;;21.12;91.02;99731.66;5079569;28;20044;-62
2023/08/19 01:05:45;;;;;;;1.63;1.05;;;;;;;21.08;90.74;99729.25;5079750;28;20045;-62
2023/08/19 01:08:22;;;;;;;1.95;1.45;;;;;;;21.07;91.01;99737.94;5095128;28;20124;-61
2023/08/19 01:11:04;;;;;;;2.95;1.17;;;;;;;21.04;90.97;99738.88;5091466;28;20072;-62
2023/08/19 01:13:41;;;;;;;1.60;1.02;;;;;;;21.01;91.05;99738.19;5075315;28;20037;-62
2023/08/19 01:16:17;;;;;;;1.50;1.33;;;;;;;21.03;90.98;99737.22;5076146;28;20045;-62
2023/08/19 01:18:46;;;;;;;3.80;1.23;;;;;;;21.03;91.15;99747.59;5076197;28;20109;-62
2023/08/19 01:21:16;;;;;;;1.67;1.25;;;;;;;21.04;90.86;99743.25;5076979;28;20067;-62
2023/08/19 01:23:49;;;;;;;2.25;1.15;;;;;;;21.00;90.95;99734.72;5091795;28;20044;-62
2023/08/19 01:26:20;;;;;;;2.63;1.42;;;;;;;21.00;90.88;99733.88;5075312;28;20071;-61
2023/08/19 01:28:51;;;;;;;1.25;1.10;;;;;;;20.97;90.90;99727.06;5076054;28;20040;-62
2023/08/19 01:31:20;;;;;;;1.30;1.20;;;;;;;20.94;90.78;99732.41;5091851;28;20120;-62
2023/08/19 01:33:49;;;;;;;2.13;1.77;;;;;;;20.94;90.76;99727.22;5091574;28;20048;-62
2023/08/19 01:36:27;;;;;;;3.33;1.92;;;;;;;20.93;90.67;99738.50;5076023;28;20044;-62
2023/08/19 01:39:02;;;;;;;1.42;1.33;;;;;;;20.83;90.50;99739.78;5091790;28;20047;-62
2023/08/19 01:41:33;;;;;;;2.70;1.10;;;;;;;20.84;90.93;99733.69;5076108;28;20122;-62
2023/08/19 01:44:03;;;;;;;1.33;1.05;;;;;;;20.90;90.97;99735.19;5076029;28;20052;-62
2023/08/19 01:46:32;;;;;;;1.77;1.10;;;;;;;20.87;90.81;99730.97;5091549;28;20056;-61
2023/08/19 01:49:01;;;;;;;3.38;1.48;;;;;;;20.84;90.77;99736.28;5075468;28;20056;-62
2023/08/19 01:51:30;;;;;;;0.82;0.80;;;;;;;20.79;90.79;99727.84;5091218;28;20110;-62
2023/08/19 01:53:59;;;;;;;2.65;1.40;;;;;;;20.78;90.66;99731.34;5075473;28;20040;-62
2023/08/19 01:56:29;;;;;;;3.72;1.45;;;;;;;20.76;90.67;99721.94;5075328;28;20047;-62
2023/08/19 01:59:00;;;;;;;2.22;1.67;;;;;;;20.73;90.95;99728.13;5074188;28;20127;-62
2023/08/19 02:01:29;;;;;;;1.25;1.13;;;;;;;20.71;91.10;99724.72;5074516;28;20090;-62
2023/08/19 02:03:58;;;;;;;1.30;1.20;;;;;;;20.71;91.15;99730.75;5075344;28;20041;-62
2023/08/19 02:06:29;;;;;;;1.77;1.52;;;;;;;20.71;90.94;99727.31;5090911;28;20052;-62
2023/08/19 02:08:58;;;;;;;0.93;0.85;;;;;;;20.70;91.05;99723.06;5090900;28;20127;-61
2023/08/19 02:11:26;;;;;;;1.42;1.33;;;;;;;20.73;90.98;99728.13;5075175;28;20043;-61
2023/08/19 02:13:56;;;;;;;6.22;3.15;;;;;;;20.72;91.13;99731.59;5073903;28;20139;-61
2023/08/19 02:16:27;;;;;;;2.60;1.85;;;;;;;20.67;91.02;99725.75;5090793;28;20106;-61
2023/08/19 02:18:58;;;;;;;1.58;1.40;;;;;;;20.67;90.98;99741.31;5075286;28;20157;-61
2023/08/19 02:21:27;;;;;;;1.55;1.17;;;;;;;20.67;91.05;99724.03;5074689;28;20044;-62
2023/08/19 02:23:55;;;;;;;0.75;0.75;;;;;;;20.71;91.20;99727.31;5074956;28;20403;-62
2023/08/19 02:26:24;;;;;;;2.30;1.80;;;;;;;20.72;91.00;99718.63;5090379;28;20055;-61
2023/08/19 02:28:53;;;;;;;1.15;1.00;;;;;;;20.69;91.07;99726.53;5090455;28;20048;-62
2023/08/19 02:31:22;;;;;;;1.30;0.90;;;;;;;20.68;90.77;99724.88;5074799;28;20040;-62
2023/08/19 02:33:52;;;;;;;2.35;1.70;;;;;;;20.66;90.96;99726.66;5090692;28;20092;-61
2023/08/19 02:36:21;;;;;;;1.58;1.40;;;;;;;20.64;90.80;99731.06;5075205;28;20090;-62
2023/08/19 02:38:50;;;;;;;3.10;1.98;;;;;;;20.63;90.83;99724.22;5073224;28;20041;-61
2023/08/19 02:41:19;;;;;;;7.35;2.65;;;;;;;20.62;90.86;99730.28;5074541;28;20036;-62
2023/08/19 02:43:48;;;;;;;1.05;0.90;;;;;;;20.63;91.00;99732.00;5075253;28;20390;-62
2023/08/19 02:46:17;;;;;;;0.98;0.85;;;;;;;20.57;90.62;99727.03;5074461;28;20062;-61
2023/08/19 02:48:47;;;;;;;1.00;0.85;;;;;;;20.56;90.66;99731.38;5074259;28;20414;-61
2023/08/19 02:51:18;;;;;;;4.32;1.95;;;;;;;20.59;90.61;99730.41;5074310;28;20051;-61
2023/08/19 02:53:47;;;;;;;3.17;2.00;;;;;;;20.58;90.66;99733.94;5074850;28;20053;-62
2023/08/19 02:56:16;;;;;;;1.40;1.05;;;;;;;20.51;90.61;99733.34;5074215;28;20043;-61
2023/08/19 02:58:45;;;;;;;1.00;0.80;;;;;;;20.50;90.70;99738.56;5074314;28;20360;-62
2023/08/19 03:01:14;;;;;;;1.73;1.63;;;;;;;20.48;90.68;99737.78;5074137;28;20048;-62
2023/08/19 03:03:44;;;;;;;1.52;1.10;;;;;;;20.45;90.73;99730.13;5074147;28;20106;-62
2023/08/19 03:06:13;;;;;;;1.00;0.95;;;;;;;20.43;90.90;99735.38;5074063;28;20049;-62
2023/08/19 03:08:44;;;;;;;1.15;1.00;;;;;;;20.43;90.87;99734.53;5073998;28;20131;-60
2023/08/19 03:11:13;;;;;;;1.02;0.95;;;;;;;20.44;90.83;99733.63;5073179;28;20044;-62
2023/08/19 03:13:41;;;;;;;1.08;0.98;;;;;;;20.38;90.81;99729.53;5074172;28;20529;-61
2023/08/19 03:16:10;;;;;;;2.88;1.83;;;;;;;20.37;90.94;99732.19;5073885;28;20040;-61
2023/08/19 03:18:39;;;;;;;1.65;1.27;;;;;;;20.41;90.89;99736.34;5089653;28;20145;-61
2023/08/19 03:21:09;;;;;;;10.68;1.70;;;;;;;20.37;90.75;99737.38;5074169;28;20048;-62
2023/08/19 03:23:38;;;;;;;1.75;1.60;;;;;;;20.32;90.85;99734.97;5073796;28;20055;-62
2023/08/19 03:26:08;;;;;;;1.90;1.55;;;;;;;20.27;90.97;99738.63;5074132;28;20119;-62
2023/08/19 03:28:38;;;;;;;1.38;1.17;;;;;;;20.28;90.98;99740.31;5073875;28;20044;-62
2023/08/19 03:31:10;;;;;;;1.85;1.52;;;;;;;20.32;91.15;99739.31;5073915;28;20401;-62
2023/08/19 03:33:42;;;;;;;7.13;1.83;;;;;;;20.35;91.17;99736.56;5073647;28;20424;-62
2023/08/19 03:36:12;;;;;;;1.98;1.80;;;;;;;20.29;90.89;99736.81;5073708;28;20056;-62
2023/08/19 03:38:41;;;;;;;;;;;;;;;20.26;91.10;99737.78;5089597;28;20045;-62
2023/08/19 03:41:12;;;;;;;1.27;1.17;;;;;;;20.23;91.15;99724.13;5089199;28;19924;-62
2023/08/19 03:43:41;;;;;;;4.30;1.92;;;;;;;20.20;90.96;99726.78;5089823;28;20135;-62
2023/08/19 03:46:10;;;;;;;1.30;1.20;;;;;;;20.21;91.29;99731.06;5073576;28;20049;-60
2023/08/19 03:48:39;;;;;;;3.65;1.42;;;;;;;20.24;91.26;99728.38;5073324;28;20136;-62
2023/08/19 03:51:09;;;;;;;2.08;1.38;;;;;;;20.27;91.40;99729.13;5073816;28;20482;-62
2023/08/19 03:53:38;;;;;;;1.60;1.08;;;;;;;20.24;91.18;99728.38;5073501;28;20040;-62
2023/08/19 03:56:06;;;;;;;1.15;1.05;;;;;;;20.21;91.41;99729.31;5073460;28;20044;-62
2023/08/19 03:58:37;;;;;;;1.92;1.45;;;;;;;20.20;91.41;99726.78;5073661;28;20082;-62
2023/08/19 04:01:08;;;;;;;2.60;2.17;;;;;;;20.21;91.50;99728.47;5073407;28;20067;-62
2023/08/19 04:03:40;;;;;;;1.30;1.10;;;;;;;20.18;91.89;99728.59;5073417;28;20049;-62
2023/08/19 04:06:11;;;;;;;1.77;1.67;;;;;;;20.22;91.62;99735.34;5073407;28;20053;-62
2023/08/19 04:08:39;;;;;;;1.48;1.23;;;;;;;20.30;91.85;99730.75;5073622;28;20055;-61
2023/08/19 04:11:09;;;;;;;0.98;0.73;;;;;;;20.32;91.90;99734.97;5089438;28;20044;-61
2023/08/19 04:13:40;;;;;;;1.38;1.08;;;;;;;20.30;91.98;99733.34;5073374;28;20134;-61
2023/08/19 04:16:09;;;;;;;1.40;1.25;;;;;;;20.34;91.93;99735.75;5072126;28;20139;-62
2023/08/19 04:18:39;;;;;;;1.15;1.00;;;;;;;20.36;92.10;99727.91;5073215;28;20041;-62
2023/08/19 04:21:11;;;;;;;1.30;1.17;;;;;;;20.41;92.22;99731.16;5072000;28;20072;-61
2023/08/19 04:23:41;;;;;;;1.33;1.23;;;;;;;20.44;92.24;99734.47;5073171;28;20048;-62
2023/08/19 04:26:09;;;;;;;1.40;1.20;;;;;;;20.44;92.44;99744.84;5088867;28;20495;-61
2023/08/19 04:28:40;;;;;;;0.82;0.80;;;;;;;20.52;92.43;99744.53;5073418;28;20071;-62
2023/08/19 04:31:11;;;;;;;1.00;0.90;;;;;;;20.47;92.34;99744.72;5072497;28;20044;-60
2023/08/19 04:33:47;;;;;;;1.45;1.30;;;;;;;20.47;92.51;99738.69;5073127;28;20063;-60
2023/08/19 04:36:16;;;;;;;1.10;1.00;;;;;;;20.55;92.59;99744.41;5071942;28;20036;-62
2023/08/19 04:38:45;;;;;;;2.88;1.90;;;;;;;20.64;92.47;99757.00;5073245;28;20118;-62
2023/08/19 04:41:16;;;;;;;2.20;1.75;;;;;;;20.65;92.33;99750.94;5088982;28;20131;-62
2023/08/19 04:43:48;;;;;;;1.65;1.13;;;;;;;20.63;92.41;99757.94;5073063;28;20102;-62
2023/08/19 04:46:18;;;;;;;1.58;1.48;;;;;;;20.65;92.40;99761.31;5076802;28;20055;-62
2023/08/19 04:48:47;;;;;;;2.90;1.90;;;;;;;20.68;92.42;99766.38;5076877;28;20402;-62
2023/08/19 04:51:18;;;;;;;1.50;1.40;;;;;;;20.71;92.58;99766.22;5076707;28;20044;-62
2023/08/19 04:53:47;;;;;;;1.60;1.40;;;;;;;20.74;92.33;99771.28;5092253;28;20058;-62
2023/08/19 04:56:16;;;;;;;1.83;1.67;;;;;;;20.77;92.66;99766.00;5076828;28;20454;-62
2023/08/19 04:58:48;;;;;;;1.45;1.35;;;;;;;20.81;92.40;99767.53;5076840;28;20048;-62
2023/08/19 05:01:18;;;;;;;1.67;1.52;;;;;;;20.84;92.52;99766.56;5092460;28;20056;-63
2023/08/19 05:03:47;;;;;;;1.60;1.40;;;;;;;20.90;92.49;99764.56;5076421;28;20058;-62
2023/08/19 05:06:16;;;;;;;1.45;1.27;;;;;;;20.96;92.26;99764.31;5075218;28;20044;-62
2023/08/19 05:08:45;;;;;;;2.88;2.10;;;;;;;21.05;92.33;99766.56;5092061;28;20047;-62
2023/08/19 05:11:14;;;;;;;1.55;1.45;;;;;;;21.12;92.02;99772.34;5075425;28;20386;-62
2023/08/19 05:13:46;;;;;;;0.60;0.60;;;;;;;21.17;92.00;99771.25;5076268;28;20074;-62
2023/08/19 05:16:18;;;;;;;2.10;1.45;;;;;;;21.26;91.80;99770.84;5075389;28;20049;-63
2023/08/19 05:19:04;;;;;;;1.23;1.00;;;;;;;21.32;91.64;99773.19;5075092;28;20051;-63
2023/08/19 05:21:33;;;;;;;1.80;1.33;;;;;;;21.39;91.36;99771.16;5076222;28;20062;-62
2023/08/19 05:24:03;;;;;;;1.58;1.38;;;;;;;21.46;91.27;99776.94;5074854;28;20098;-62
2023/08/19 05:26:32;;;;;;;1.88;1.10;;;;;;;21.48;91.22;99781.16;5076305;28;20445;-63
2023/08/19 05:29:01;;;;;;;1.10;1.00;;;;;;;21.54;91.00;99785.25;5075976;28;20033;-62
2023/08/19 05:31:32;;;;;;;2.90;1.67;;;;;;;21.58;90.80;99786.78;5074740;28;20404;-62
2023/08/19 05:34:01;;;;;;;2.83;1.85;;;;;;;21.66;90.30;99787.31;5075924;28;20070;-62
2023/08/19 05:36:31;;;;;;;2.72;1.50;;;;;;;21.76;90.43;99786.00;5075877;28;20043;-63
2023/08/19 05:39:00;;;;;;;3.45;1.15;;;;;;;21.82;90.17;99790.91;5076043;28;20051;-62
2023/08/19 05:41:29;;;;;;;1.10;0.98;;;;;;;21.92;90.14;99794.81;5075843;28;20087;-63
2023/08/19 05:43:58;;;;;;;1.48;1.20;;;;;;;21.94;89.71;99795.59;5075599;28;20079;-62
2023/08/19 05:46:27;;;;;;;1.42;1.30;;;;;;;22.00;89.65;99797.94;5075632;28;20037;-63
2023/08/19 05:48:57;;;;;;;1.25;1.15;;;;;;;22.12;89.54;99797.38;5075383;28;20045;-63
2023/08/19 05:51:26;;;;;;;1.02;0.95;;;;;;;22.24;89.25;99794.19;5075689;28;20048;-63
2023/08/19 05:54:00;;;;;;;1.45;1.35;;;;;;;22.32;88.88;99799.88;5075461;28;20043;-63
2023/08/19 05:56:29;;;;;;;1.67;1.40;;;;;;;22.35;88.33;99802.34;5075036;28;20051;-62
2023/08/19 05:58:57;;;;;;;1.48;1.38;;;;;;;22.47;88.04;99806.97;5075905;28;20497;-63
2023/08/19 06:01:26;;;;;;;1.25;1.15;;;;;;;22.57;87.67;99803.00;5075391;28;20094;-63
2023/08/19 06:03:57;;;;;;;1.45;1.35;;;;;;;22.62;87.11;99808.03;5075257;28;20040;-63
2023/08/19 06:06:26;;;;;;;2.17;1.85;;;;;;;22.63;86.62;99815.75;5075607;28;20142;-61
2023/08/19 06:08:55;;;;;;;;;;;;;;;22.75;86.63;99821.31;5075836;28;20444;-63
2023/08/19 06:11:24;;;;;;;0.73;0.73;;;;;;;22.81;86.26;99815.78;5075491;28;20036;-63
2023/08/19 06:13:53;;;;;;;1.27;1.17;;;;;;;22.89;85.79;99816.28;5075072;28;20040;-62
2023/08/19 06:16:22;;;;;;;1.35;1.25;;;;;;;22.91;85.40;99817.03;5075155;28;20041;-63
2023/08/19 06:18:51;;;;;;;1.45;1.17;;;;;;;22.90;85.08;99821.38;5074943;28;20052;-63
2023/08/19 06:21:21;;;;;;;2.67;1.48;;;;;;;22.95;85.03;99814.19;5074872;28;20075;-63
2023/08/19 06:23:50;;;;;;;1.95;1.08;;;;;;;23.05;84.82;99815.44;5075031;28;20491;-62
2023/08/19 06:26:19;;;;;;;2.22;1.85;;;;;;;23.10;84.46;99812.59;5075151;28;20044;-62
2023/08/19 06:28:48;;;;;;;1.95;1.50;;;;;;;23.16;84.02;99809.69;5074829;28;20037;-63
2023/08/19 06:31:18;;;;;;;2.45;1.50;;;;;;;23.24;83.64;99815.34;5075325;28;20040;-62
2023/08/19 06:33:51;;;;;;;1.88;1.33;;;;;;;23.29;83.15;99811.63;5074999;28;20052;-64
2023/08/19 06:36:25;;;;;;;0.65;0.65;;;;;;;23.36;82.61;99809.56;5074916;28;20045;-63
2023/08/19 06:39:04;;;;;;;1.23;1.13;;;;;;;23.39;82.47;99805.97;5075310;28;20135;-62
2023/08/19 06:41:36;;;;;;;;;;;;;;;23.44;82.17;99812.63;5075313;28;20055;-62
2023/08/19 06:44:09;;;;;;;1.55;1.13;;;;;;;23.49;81.98;99805.38;5074461;28;19921;-63
2023/08/19 06:46:38;;;;;;;1.33;1.23;;;;;;;23.54;81.80;99816.44;5074478;28;20123;-63
2023/08/19 06:49:07;;;;;;;;;;;;;;;23.61;81.55;99830.00;5074543;28;20084;-63
2023/08/19 06:51:38;;;;;;;1.85;1.35;;;;;;;23.67;81.23;99817.50;5074631;28;19946;-63
2023/08/19 06:54:08;;;;;;;1.75;1.52;;;;;;;23.73;80.92;99818.94;5074467;28;20052;-63
2023/08/19 06:56:47;;;;;;;2.58;1.50;;;;;;;23.80;80.72;99821.13;5074226;28;20127;-63
2023/08/19 06:59:21;;;;;;;2.30;1.27;;;;;;;23.91;80.74;99823.19;5074306;28;20064;-63
2023/08/19 07:01:53;;;;;;;0.75;0.75;;;;;;;23.97;80.53;99839.34;5074160;28;20285;-64
2023/08/19 07:04:23;;;;;;;1.42;0.93;;;;;;;24.02;79.82;99832.13;5074444;28;20044;-64
2023/08/19 07:06:54;;;;;;;;;;;;;;;24.05;79.20;99832.88;5074479;28;20087;-63
2023/08/19 07:09:23;;;;;;;1.77;1.17;;;;;;;24.10;78.83;99841.31;5073268;28;19924;-63
2023/08/19 07:11:54;;;;;;;1.25;1.15;;;;;;;24.20;78.91;99839.91;5073938;28;20127;-63
2023/08/19 07:14:25;;;;;;;1.45;1.33;;;;;;;24.31;78.75;99848.84;5074156;28;20044;-63
2023/08/19 07:16:59;;;;;;;1.50;1.00;;;;;;;24.44;78.30;99846.41;5073897;28;20131;-63
2023/08/19 07:19:35;;;;;;;1.63;1.20;;;;;;;24.58;78.09;99846.50;5073786;28;20045;-63
2023/08/19 07:22:07;;;;;;;1.40;1.20;;;;;;;24.72;78.12;99849.19;5074158;28;20045;-63
2023/08/19 07:24:37;;;;;;;1.25;1.02;;;;;;;24.74;77.51;99852.53;5073826;28;20059;-63
2023/08/19 07:27:07;;;;;;;1.85;1.55;;;;;;;24.78;77.17;99853.25;5074652;28;20429;-63
2023/08/19 07:29:37;;;;;;;1.88;1.38;;;;;;;24.91;77.14;99847.25;5074111;28;20423;-63
2023/08/19 07:32:11;;;;;;;1.67;1.42;;;;;;;25.10;76.98;99857.47;5073797;28;20064;-63
2023/08/19 07:34:40;;;;;;;1.35;1.10;;;;;;;25.24;76.61;99860.97;5074009;28;20037;-63
2023/08/19 07:37:10;;;;;;;0.80;0.80;;;;;;;25.33;76.04;99858.78;5073913;28;20508;-63
2023/08/19 07:39:39;;;;;;;0.80;0.70;;;;;;;25.42;75.09;99863.47;5073528;28;20561;-63
2023/08/19 07:42:08;;;;;;;1.85;1.50;;;;;;;25.52;74.77;99864.66;5089929;28;20110;-63
2023/08/19 07:44:36;;;;;;;1.42;1.13;;;;;;;25.53;74.37;99868.97;5073765;28;20090;-63
2023/08/19 07:47:05;;;;;;;1.40;1.30;;;;;;;25.53;74.11;99868.97;5073551;28;20124;-63
2023/08/19 07:49:34;;;;;;;;;;;;;;;25.54;73.92;99870.63;5073663;28;20079;-63
2023/08/19 07:52:03;;;;;;;2.00;0.87;;;;;;;25.60;74.24;99885.97;5073866;28;20389;-63
2023/08/19 07:54:33;;;;;;;0.77;0.77;;;;;;;25.62;74.20;99873.63;5073413;28;20305;-63
2023/08/19 07:57:02;;;;;;;1.52;1.40;;;;;;;25.63;73.55;99876.16;5073461;28;20055;-63
2023/08/19 07:59:31;;;;;;;0.95;0.95;;;;;;;25.68;73.63;99873.25;5073575;28;20119;-63
2023/08/19 08:02:00;;;;;;;1.85;1.38;;;;;;;25.71;73.80;99871.31;5073361;28;20060;-63
2023/08/19 08:04:29;;;;;;;0.80;0.80;;;;;;;25.72;73.93;99874.78;5073593;28;20041;-63
2023/08/19 08:06:58;;;;;;;1.65;1.23;;;;;;;25.79;73.77;99879.56;5073404;28;20098;-63
2023/08/19 08:09:27;;;;;;;5.22;1.65;;;;;;;25.89;72.62;99888.50;5072122;28;20490;-62
2023/08/19 08:11:57;;;;;;;1.42;1.15;;;;;;;25.98;72.70;99881.91;5073238;28;20041;-63
2023/08/19 08:14:26;;;;;;;1.15;1.05;;;;;;;26.13;72.41;99885.38;5073306;28;20432;-63
2023/08/19 08:16:56;;;;;;;2.03;1.20;;;;;;;26.33;72.31;99880.59;5073598;28;20110;-63
2023/08/19 08:19:26;;;;;;;1.95;1.20;;;;;;;26.46;72.26;99876.28;5074083;28;20044;-63
2023/08/19 08:21:55;;;;;;;1.73;1.48;;;;;;;26.65;72.13;99882.97;5077814;28;20041;-64
2023/08/19 08:24:25;;;;;;;1.15;1.02;;;;;;;26.78;71.72;99873.44;5077433;28;20449;-64
2023/08/19 08:26:54;;;;;;;1.33;1.23;;;;;;;26.82;70.76;99878.38;5077161;28;20040;-64
2023/08/19 08:29:25;;;;;;;2.28;1.40;;;;;;;26.95;70.13;99871.41;5077045;28;20128;-63
2023/08/19 08:31:54;;;;;;;1.15;1.00;;;;;;;27.00;69.64;99884.19;5077055;28;20545;-64
2023/08/19 08:34:22;;;;;;;0.52;0.52;;;;;;;27.11;69.13;99882.56;5077278;28;20441;-63
2023/08/19 08:36:51;;;;;;;0.70;0.70;;;;;;;27.20;68.66;99883.75;5077253;28;20040;-64
2023/08/19 08:39:20;;;;;;;1.35;1.25;;;;;;;27.29;68.52;99877.91;5076944;28;20055;-64
2023/08/19 08:41:51;;;;;;;1.40;1.13;;;;;;;27.46;68.25;99888.13;5077059;28;20390;-64
2023/08/19 08:44:23;;;;;;;2.10;1.38;;;;;;;27.61;67.95;99881.88;5092604;28;20058;-64
2023/08/19 08:46:57;;;;;;;2.67;1.38;;;;;;;27.68;67.29;99883.13;5076995;28;20399;-63
2023/08/19 08:49:27;;;;;;;0.82;0.82;;;;;;;27.78;67.32;99889.44;5076535;28;20043;-64
2023/08/19 08:51:56;;;;;;;1.88;1.13;;;;;;;27.87;66.24;99886.19;5092745;28;20045;-63
2023/08/19 08:54:25;;;;;;;;;;;;;;;27.98;65.43;99882.00;5076890;28;20047;-63
2023/08/19 08:56:54;;;;;;;0.82;0.70;;;;;;;28.02;65.18;99888.72;5076632;28;20370;-64
2023/08/19 08:59:23;;;;;;;2.30;1.52;;;;;;;28.04;65.10;99884.22;5076515;28;20064;-64
2023/08/19 09:01:53;;;;;;;3.45;1.30;;;;;;;28.20;65.35;99879.56;5076339;28;20055;-64
2023/08/19 09:04:24;;;;;;;1.10;1.00;;;;;;;28.29;65.56;99890.25;5076770;28;20384;-63
2023/08/19 09:07:01;;;;;;;0.63;0.63;;;;;;;28.40;65.79;99886.91;5076655;28;20048;-64
2023/08/19 09:09:34;;;;;;;0.70;0.70;;;;;;;28.51;65.89;99881.72;5076384;28;20057;-64
2023/08/19 09:12:09;;;;;;;5.35;1.65;;;;;;;28.54;65.18;99884.13;5076314;28;20051;-64
2023/08/19 09:14:42;;;;;;;0.98;0.90;;;;;;;28.65;64.80;99888.66;5076390;28;20383;-63
2023/08/19 09:17:14;;;;;;;1.20;1.10;;;;;;;28.67;64.77;99889.38;5076220;28;20048;-63
2023/08/19 09:19:44;;;;;;;1.23;1.00;;;;;;;28.69;64.52;99892.72;5076256;28;20075;-64
2023/08/19 09:22:22;;;;;;;0.70;0.70;;;;;;;28.61;64.96;99893.28;5076227;28;20047;-63
2023/08/19 09:24:52;;;;;;;1.08;0.98;;;;;;;28.52;64.27;99893.91;5076063;28;20048;-63
2023/08/19 09:27:29;;;;;;;1.17;1.05;;;;;;;28.53;64.32;99898.19;5076107;28;20044;-63
2023/08/19 09:29:59;;;;;;;0.90;0.82;;;;;;;28.34;64.61;99903.06;5075977;28;20052;-63
2023/08/19 09:32:33;;;;;;;0.80;0.70;;;;;;;28.26;64.67;99897.53;5074879;28;20045;-62
2023/08/19 09:35:05;;;;;;;1.70;1.33;;;;;;;28.18;64.80;99903.31;5076817;28;20139;-64
2023/08/19 09:37:36;;;;;;;1.20;1.05;;;;;;;28.35;64.50;99905.59;5076155;28;20043;-63
2023/08/19 09:40:10;;;;;;;1.00;0.98;;;;;;;28.55;63.79;99906.84;5075925;28;20413;-64
2023/08/19 09:42:41;;;;;;;2.88;1.48;;;;;;;28.68;63.05;99897.16;5075714;28;20041;-64
2023/08/19 09:45:18;;;;;;;1.58;1.27;;;;;;;28.72;61.88;99903.88;5075698;28;20055;-63
2023/08/19 09:47:50;;;;;;;1.30;1.20;;;;;;;28.64;60.13;99907.97;5075823;28;20114;-63
2023/08/19 09:50:22;;;;;;;1.98;1.50;;;;;;;28.49;60.17;99917.75;5075599;28;20052;-63
2023/08/19 09:52:55;;;;;;;1.65;1.20;;;;;;;28.42;60.99;99919.97;5075635;28;20045;-63
2023/08/19 09:55:27;;;;;;;0.98;0.90;;;;;;;28.36;61.72;99916.97;5075509;28;20045;-62
2023/08/19 09:57:56;;;;;;;0.57;0.57;;;;;;;28.41;62.29;99920.09;5075578;28;20056;-63
2023/08/19 10:00:25;;;;;;;;;;;;;;;28.51;62.80;99910.59;5076118;28;20453;-64
2023/08/19 10:02:56;;;;;;;;;;;;;;;28.60;62.85;99910.00;5075652;28;19928;-62
2023/08/19 10:05:27;;;;;;;1.15;0.95;;;;;;;28.69;63.08;99911.13;5075680;28;20413;-63
2023/08/19 10:08:01;;;;;;;1.23;1.05;;;;;;;28.88;62.76;99906.22;5075515;28;20044;-63
2023/08/19 10:10:32;;;;;;;1.05;0.95;;;;;;;29.02;62.55;99906.91;5075564;28;20495;-63
2023/08/19 10:13:04;;;;;;;0.80;0.75;;;;;;;28.99;62.15;99907.13;5075218;28;20049;-63
2023/08/19 10:15:34;;;;;;;1.13;0.95;;;;;;;28.79;62.03;99899.84;5075470;28;20045;-63
2023/08/19 10:18:11;;;;;;;1.38;1.15;;;;;;;28.84;62.49;99902.97;5075063;28;20076;-63
2023/08/19 10:20:42;;;;;;;2.15;1.52;;;;;;;29.09;62.45;99902.88;5075242;28;20409;-63
2023/08/19 10:23:12;;;;;;;0.90;0.70;;;;;;;29.05;62.24;99896.16;5075018;28;20039;-63
2023/08/19 10:25:43;;;;;;;0.47;0.47;;;;;;;29.10;62.19;99894.03;5075605;28;20044;-62
2023/08/19 10:28:13;;;;;;;1.38;1.27;;;;;;;29.19;60.97;99893.41;5075543;28;20040;-62
2023/08/19 10:30:43;;;;;;;1.20;1.08;;;;;;;29.20;60.59;99897.69;5073790;28;20048;-63
2023/08/19 10:33:36;;;;;;;1.02;0.93;;;;;;;29.44;60.35;99904.72;5075239;28;20391;-63
2023/08/19 10:36:06;;;;;;;3.33;1.25;;;;;;;29.48;58.86;99907.00;5075169;28;20447;-62
2023/08/19 10:38:47;;;;;;;0.73;0.70;;;;;;;29.42;59.89;99911.91;5074679;28;20560;-63
2023/08/19 10:41:23;;;;;;;0.82;0.82;;;;;;;29.34;60.40;99914.25;5074976;28;20040;-62
2023/08/19 10:44:00;;;;;;;1.48;1.05;;;;;;;29.47;60.46;99912.38;5074609;28;20071;-63
2023/08/19 10:46:33;;;;;;;0.95;0.85;;;;;;;29.49;59.95;99913.94;5074494;28;20048;-63
2023/08/19 10:49:05;;;;;;;1.10;1.00;;;;;;;29.46;59.26;99905.44;5074413;28;20048;-63
2023/08/19 10:52:03;;;;;;;0.77;0.77;;;;;;;29.67;59.81;99916.97;5074703;28;20102;-63
2023/08/19 10:54:38;;;;;;;1.10;1.00;;;;;;;29.79;59.42;99908.19;5074724;28;20079;-63
2023/08/19 10:57:10;;;;;;;0.93;0.80;;;;;;;29.90;59.84;99915.28;5074588;28;20406;-63
2023/08/19 10:59:41;;;;;;;1.88;1.58;;;;;;;29.90;59.21;99905.56;5074520;28;20459;-63
2023/08/19 11:02:11;;;;;;;1.35;0.98;;;;;;;29.94;59.28;99896.47;5074725;28;20040;-62
2023/08/19 11:04:43;;;;;;;1.20;0.88;;;;;;;30.04;58.99;99902.72;5074433;28;20498;-62
2023/08/19 11:07:12;;;;;;;1.08;0.90;;;;;;;30.00;59.18;99895.16;5074214;28;20057;-62
2023/08/19 11:09:42;;;;;;;1.40;1.23;;;;;;;30.13;58.45;99891.47;5073964;28;20043;-63
2023/08/19 11:12:12;;;;;;;1.02;0.93;;;;;;;30.20;57.95;99887.41;5074264;28;20045;-63
2023/08/19 11:14:47;;;;;;;1.77;1.27;;;;;;;30.30;57.08;99891.00;5074304;28;20040;-63
2023/08/19 11:17:16;;;;;;;1.23;1.13;;;;;;;30.35;57.18;99891.47;5074207;28;20102;-63
2023/08/19 11:19:47;;;;;;;5.57;1.25;;;;;;;30.47;56.88;99893.13;5084355;28;20044;-63
2023/08/19 11:22:16;;;;;;;1.73;1.38;;;;;;;30.47;56.84;99887.88;5093627;28;20032;-63
2023/08/19 11:24:45;;;;;;;0.73;0.70;;;;;;;30.52;56.64;99871.72;5094393;28;20444;-63
2023/08/19 11:27:16;;;;;;;0.75;0.75;;;;;;;30.34;56.33;99874.00;5093464;28;20048;-62
2023/08/19 11:29:47;;;;;;;0.98;0.93;;;;;;;30.47;56.33;99864.16;5094538;28;20444;-62
2023/08/19 11:32:20;;;;;;;2.42;0.95;;;;;;;30.72;56.44;99862.19;5093250;28;20044;-63
2023/08/19 11:34:50;;;;;;;1.42;0.73;;;;;;;30.83;56.16;99864.81;5092977;28;20032;-63
2023/08/19 11:37:20;;;;;;;1.35;1.08;;;;;;;30.89;55.24;99864.31;5093058;28;20044;-63
2023/08/19 11:39:49;;;;;;;0.82;0.80;;;;;;;31.04;55.64;99871.00;5093438;28;20048;-63
2023/08/19 11:42:18;;;;;;;1.02;0.90;;;;;;;31.04;55.00;99860.44;5091907;28;20044;-63
2023/08/19 11:44:47;;;;;;;1.45;1.08;;;;;;;30.85;54.69;99857.59;5094089;28;20040;-62
2023/08/19 11:47:16;;;;;;;1.17;0.85;;;;;;;30.83;54.81;99849.00;5093707;28;20032;-63
2023/08/19 11:49:46;;;;;;;4.70;1.48;;;;;;;30.80;55.26;99843.97;5093957;28;20062;-63
2023/08/19 11:52:21;;;;;;;2.63;1.48;;;;;;;31.02;54.92;99843.91;5093215;28;20131;-63